createdAt,value
2019-04-23T00:00:56.429Z,12.00
2019-04-23T00:03:18.769Z,11.90
2019-04-23T00:05:48.461Z,11.90
2019-04-23T00:08:41.604Z,11.90
2019-04-23T00:10:58.431Z,11.80
2019-04-23T00:13:24.243Z,11.90
2019-04-23T00:16:27.637Z,11.80
2019-04-23T00:18:42.311Z,11.80
2019-04-23T00:21:26.715Z,11.70
2019-04-23T00:24:01.763Z,11.70
2019-04-23T00:26:30.542Z,11.60
2019-04-23T00:29:00.466Z,11.60
2019-04-23T00:33:59.043Z,11.60
2019-04-23T00:36:32.466Z,11.60
2019-04-23T00:38:55.878Z,11.40
2019-04-23T00:41:33.374Z,11.40
2019-04-23T00:44:15.219Z,11.30
2019-04-23T00:46:36.880Z,11.40
2019-04-23T00:49:05.322Z,11.30
2019-04-23T00:51:32.885Z,11.30
2019-04-23T00:53:58.453Z,11.30
2019-04-23T00:56:42.114Z,11.20
2019-04-23T00:59:00.757Z,11.20
2019-04-23T01:01:38.895Z,11.10
2019-04-23T01:04:07.089Z,11.10
2019-04-23T01:06:32.606Z,11.10
2019-04-23T01:09:02.577Z,11.00
2019-04-23T01:11:32.425Z,11.00
2019-04-23T01:14:17.635Z,11.00
2019-04-23T01:16:33.224Z,10.90
2019-04-23T01:19:12.190Z,10.90
2019-04-23T01:21:26.457Z,10.80
2019-04-23T01:24:08.292Z,10.80
2019-04-23T01:27:33.885Z,10.70
2019-04-23T01:29:50.635Z,10.70
2019-04-23T01:32:20.721Z,10.70
2019-04-23T01:34:51.963Z,10.60
2019-04-23T01:37:19.070Z,10.60
2019-04-23T01:39:52.812Z,10.50
2019-04-23T01:42:28.960Z,10.50
2019-04-23T01:44:54.117Z,10.50
2019-04-23T01:47:25.190Z,10.50
2019-04-23T01:50:01.932Z,10.60
2019-04-23T01:52:27.819Z,10.60
2019-04-23T01:54:52.237Z,10.60
2019-04-23T01:57:28.820Z,10.50
2019-04-23T01:59:58.451Z,10.60
2019-04-23T02:02:29.731Z,10.50
2019-04-23T02:05:01.490Z,10.60
2019-04-23T02:07:29.686Z,10.50
2019-04-23T02:10:07.239Z,10.40
2019-04-23T02:12:25.737Z,10.40
2019-04-23T02:15:00.219Z,10.40
2019-04-23T02:17:28.804Z,10.40
2019-04-23T02:20:01.983Z,10.40
2019-04-23T02:23:05.000Z,10.40
2019-04-23T02:25:37.750Z,10.30
2019-04-23T02:30:44.102Z,10.20
2019-04-23T02:35:42.763Z,10.20
2019-04-23T02:40:38.051Z,10.10
2019-04-23T02:53:07.371Z,10.20
2019-04-23T03:00:39.645Z,10.20
2019-04-23T03:03:06.226Z,10.30
2019-04-23T03:05:51.127Z,10.30
2019-04-23T03:08:08.352Z,10.30
2019-04-23T03:10:41.978Z,10.30
2019-04-23T03:13:19.758Z,10.30
2019-04-23T03:21:27.079Z,10.10
2019-04-23T03:24:13.425Z,10.10
2019-04-23T03:29:16.848Z,10.10
2019-04-23T03:34:50.306Z,9.90
2019-04-23T03:38:56.004Z,9.90
2019-04-23T03:41:39.278Z,9.90
2019-04-23T03:44:06.079Z,9.80
2019-04-23T03:51:43.330Z,9.60
2019-04-23T03:56:44.678Z,9.50
2019-04-23T03:59:20.326Z,9.40
2019-04-23T04:01:45.280Z,9.40
2019-04-23T04:06:48.304Z,9.40
2019-04-23T04:09:26.043Z,9.30
2019-04-23T04:11:33.445Z,9.30
2019-04-23T04:16:49.679Z,9.30
2019-04-23T04:19:27.915Z,9.30
2019-04-23T04:24:34.386Z,9.40
2019-04-23T04:31:52.129Z,9.50
2019-04-23T04:34:50.091Z,9.50
2019-04-23T04:37:27.089Z,9.80
2019-04-23T04:41:56.947Z,11.30
2019-04-23T04:49:36.913Z,12.30
2019-04-23T04:52:15.755Z,12.70
2019-04-23T04:54:22.554Z,12.80
2019-04-23T04:57:01.295Z,13.00
2019-04-23T04:59:59.432Z,13.10
2019-04-23T05:02:08.857Z,13.30
2019-04-23T05:04:37.593Z,13.60
2019-04-23T05:07:11.326Z,13.30
2019-04-23T05:09:44.315Z,13.40
2019-04-23T05:12:11.047Z,13.70
2019-04-23T05:14:43.851Z,14.00
2019-04-23T05:17:13.350Z,13.40
2019-04-23T05:19:50.984Z,13.50
2019-04-23T05:22:06.976Z,14.10
2019-04-23T05:24:35.183Z,13.90
2019-04-23T05:27:16.099Z,14.20
2019-04-23T05:29:46.911Z,14.50
2019-04-23T05:32:12.071Z,14.50
2019-04-23T05:34:40.325Z,14.30
2019-04-23T05:37:29.415Z,14.40
2019-04-23T05:39:52.177Z,14.60
2019-04-23T05:42:31.970Z,14.40
2019-04-23T05:44:59.283Z,14.60
2019-04-23T05:49:57.025Z,14.90
2019-04-23T05:52:34.365Z,14.80
2019-04-23T05:57:28.547Z,15.40
2019-04-23T06:00:07.631Z,15.20
2019-04-23T06:02:46.006Z,15.00
2019-04-23T06:05:15.649Z,15.00
2019-04-23T06:07:42.570Z,14.80
2019-04-23T06:10:11.364Z,14.70
2019-04-23T06:12:43.668Z,14.60
2019-04-23T06:15:24.163Z,14.60
2019-04-23T06:17:50.622Z,14.90
2019-04-23T06:20:20.058Z,14.80
2019-04-23T06:22:53.977Z,14.70
2019-04-23T06:25:35.879Z,15.00
2019-04-23T06:27:50.651Z,15.00
2019-04-23T06:30:25.760Z,15.50
2019-04-23T06:32:44.519Z,15.30
2019-04-23T06:35:18.477Z,15.70
2019-04-23T06:38:14.672Z,15.80
2019-04-23T06:40:25.143Z,15.00
2019-04-23T06:43:11.564Z,15.40
2019-04-23T06:45:37.350Z,15.80
2019-04-23T06:48:23.711Z,16.30
2019-04-23T06:50:54.530Z,16.80
2019-04-23T06:53:12.647Z,16.10
2019-04-23T06:55:49.536Z,15.80
2019-04-23T06:58:19.398Z,15.60
2019-04-23T07:00:52.462Z,16.00
2019-04-23T07:03:23.273Z,15.70
2019-04-23T07:09:03.214Z,15.60
2019-04-23T07:11:16.672Z,16.00
2019-04-23T07:13:47.185Z,16.40
2019-04-23T07:16:09.908Z,16.30
2019-04-23T07:18:41.125Z,16.90
2019-04-23T07:21:12.960Z,16.40
2019-04-23T07:23:46.820Z,16.40
2019-04-23T07:26:26.086Z,16.60
2019-04-23T07:28:49.866Z,17.10
2019-04-23T07:33:52.860Z,16.60
2019-04-23T07:36:21.020Z,16.10
2019-04-23T07:39:01.631Z,16.10
2019-04-23T07:42:09.346Z,16.00
2019-04-23T07:44:57.971Z,17.00
2019-04-23T07:48:01.430Z,17.10
2019-04-23T07:50:33.544Z,16.80
2019-04-23T07:53:17.322Z,17.20
2019-04-23T07:58:01.944Z,17.20
2019-04-23T08:00:35.331Z,17.40
2019-04-23T08:03:08.706Z,17.10
2019-04-23T08:05:26.563Z,17.10
2019-04-23T08:08:01.730Z,17.30
2019-04-23T08:10:29.721Z,17.30
2019-04-23T08:13:00.973Z,17.30
2019-04-23T08:15:35.099Z,17.40
2019-04-23T08:18:00.230Z,18.00
2019-04-23T08:20:42.591Z,17.90
2019-04-23T08:23:06.755Z,18.30
2019-04-23T08:26:02.501Z,18.30
2019-04-23T08:28:34.045Z,17.50
2019-04-23T08:30:56.775Z,17.30
2019-04-23T08:33:24.752Z,17.40
2019-04-23T08:35:57.633Z,17.30
2019-04-23T08:38:29.389Z,17.80
2019-04-23T08:41:02.638Z,17.20
2019-04-23T08:43:42.590Z,17.20
2019-04-23T08:46:26.033Z,17.50
2019-04-23T08:53:57.187Z,17.80
2019-04-23T08:56:23.701Z,17.90
2019-04-23T08:58:48.939Z,17.50
2019-04-23T09:01:24.810Z,17.60
2019-04-23T09:03:45.914Z,17.90
2019-04-23T09:06:22.166Z,18.50
2019-04-23T09:08:50.028Z,19.10
2019-04-23T09:11:41.743Z,19.40
2019-04-23T09:16:28.851Z,18.90
2019-04-23T09:19:03.903Z,18.40
2019-04-23T09:21:27.720Z,17.90
2019-04-23T09:26:25.869Z,18.00
2019-04-23T09:29:49.231Z,17.90
2019-04-23T09:32:00.761Z,18.10
2019-04-23T09:34:35.205Z,18.30
2019-04-23T09:40:29.787Z,18.30
2019-04-23T09:43:06.913Z,18.20
2019-04-23T09:48:28.441Z,18.70
2019-04-23T09:50:52.352Z,19.30
2019-04-23T09:55:41.985Z,19.40
2019-04-23T10:00:46.909Z,19.10
2019-04-23T10:03:09.160Z,18.50
2019-04-23T10:05:33.614Z,18.50
2019-04-23T10:08:07.915Z,18.40
2019-04-23T10:10:26.143Z,18.30
2019-04-23T10:12:55.749Z,18.60
2019-04-23T10:15:30.461Z,18.70
2019-04-23T10:17:56.346Z,18.70
2019-04-23T10:20:26.665Z,19.00
2019-04-23T10:22:56.708Z,19.30
2019-04-23T10:25:25.765Z,19.30
2019-04-23T10:28:00.621Z,19.20
2019-04-23T10:30:26.909Z,19.30
2019-04-23T10:32:55.940Z,19.20
2019-04-23T10:35:35.042Z,18.80
2019-04-23T10:38:02.708Z,19.10
2019-04-23T10:40:33.629Z,19.40
2019-04-23T10:42:59.701Z,19.00
2019-04-23T10:46:07.907Z,18.80
2019-04-23T10:49:31.945Z,18.80
2019-04-23T10:51:53.505Z,19.10
2019-04-23T10:54:36.121Z,19.00
2019-04-23T10:57:04.912Z,19.00
2019-04-23T11:02:29.683Z,19.10
2019-04-23T11:07:25.418Z,18.90
2019-04-23T11:12:45.019Z,19.20
2019-04-23T11:15:24.603Z,19.60
2019-04-23T11:22:45.300Z,20.20
2019-04-23T11:27:42.399Z,19.50
2019-04-23T11:30:26.271Z,19.50
2019-04-23T11:32:56.452Z,19.40
2019-04-23T11:35:24.336Z,19.50
2019-04-23T11:40:21.314Z,19.40
2019-04-23T11:42:49.403Z,18.90
2019-04-23T11:45:36.659Z,18.80
2019-04-23T11:51:00.573Z,18.90
2019-04-23T11:53:19.545Z,18.80
2019-04-23T11:55:34.286Z,19.10
2019-04-23T11:58:02.694Z,18.90
2019-04-23T12:00:31.348Z,18.50
2019-04-23T12:03:26.506Z,18.30
2019-04-23T12:06:16.916Z,18.70
2019-04-23T12:09:14.519Z,18.80
2019-04-23T12:14:29.115Z,18.80
2019-04-23T12:22:15.103Z,19.20
2019-04-23T12:25:03.318Z,19.10
2019-04-23T12:27:13.748Z,19.40
2019-04-23T12:29:52.362Z,19.40
2019-04-23T12:32:45.061Z,18.70
2019-04-23T12:35:16.641Z,18.20
2019-04-23T12:40:23.130Z,18.40
2019-04-23T12:50:41.864Z,19.50
2019-04-23T12:52:47.514Z,19.80
2019-04-23T12:57:47.218Z,19.60
2019-04-23T13:00:23.221Z,19.20
2019-04-23T13:05:21.386Z,18.70
2019-04-23T13:10:21.750Z,18.20
2019-04-23T13:15:34.357Z,18.70
2019-04-23T13:20:24.779Z,18.50
2019-04-23T13:25:44.797Z,18.10
2019-04-23T13:30:46.699Z,18.20
2019-04-23T13:36:01.685Z,18.40
2019-04-23T13:40:57.733Z,18.70
2019-04-23T13:43:30.285Z,18.70
2019-04-23T13:48:31.211Z,19.00
2019-04-23T13:50:59.922Z,18.90
2019-04-23T13:53:38.342Z,18.60
2019-04-23T13:55:54.962Z,18.50
2019-04-23T14:11:13.425Z,17.50
2019-04-23T14:16:22.787Z,17.50
2019-04-23T14:18:56.183Z,17.50
2019-04-23T14:24:02.935Z,17.60
2019-04-23T14:26:27.080Z,17.70
2019-04-23T14:28:41.663Z,17.80
2019-04-23T14:31:13.147Z,17.80
2019-04-23T14:33:52.658Z,17.90
2019-04-23T14:36:32.697Z,17.80
2019-04-23T14:39:06.512Z,18.00
2019-04-23T14:41:53.947Z,17.80
2019-04-23T14:44:22.552Z,17.70
2019-04-23T14:47:03.478Z,17.70
2019-04-23T14:49:36.228Z,17.70
2019-04-23T14:52:06.201Z,17.40
2019-04-23T14:59:37.721Z,16.70
2019-04-23T15:02:13.893Z,16.80
2019-04-23T15:04:39.715Z,16.80
2019-04-23T15:07:16.906Z,16.70
2019-04-23T15:09:57.521Z,16.60
2019-04-23T15:14:52.425Z,16.40
2019-04-23T15:17:25.199Z,16.20
2019-04-23T15:22:23.243Z,16.00
2019-04-23T15:25:03.819Z,16.00
2019-04-23T15:29:47.477Z,15.90
2019-04-23T15:32:23.919Z,16.00
2019-04-23T15:35:13.422Z,16.00
2019-04-23T15:37:40.927Z,16.00
2019-04-23T15:40:05.761Z,15.90
2019-04-23T15:45:01.352Z,15.80
2019-04-23T15:47:32.613Z,15.80
2019-04-23T15:50:10.497Z,15.90
2019-04-23T15:52:40.257Z,15.90
2019-04-23T15:55:12.537Z,15.90
2019-04-23T15:57:58.368Z,15.90
2019-04-23T15:59:58.974Z,15.90
2019-04-23T16:02:05.802Z,15.90
2019-04-23T16:04:35.720Z,15.90
2019-04-23T16:07:04.677Z,16.00
2019-04-23T16:10:12.755Z,16.10
2019-04-23T16:12:33.639Z,16.10
2019-04-23T16:17:37.817Z,16.20
2019-04-23T16:20:21.552Z,16.10
2019-04-23T16:27:45.743Z,16.10
2019-04-23T16:30:39.809Z,16.00
2019-04-23T16:33:08.864Z,16.00
2019-04-23T16:35:34.659Z,15.90
2019-04-23T16:38:10.538Z,15.80
2019-04-23T16:40:31.525Z,15.50
2019-04-23T16:43:06.500Z,15.30
2019-04-23T16:48:06.680Z,14.90
2019-04-23T16:50:31.041Z,14.80
2019-04-23T16:53:04.922Z,14.70
2019-04-23T16:55:29.159Z,14.60
2019-04-23T16:58:01.492Z,14.60
2019-04-23T17:01:00.785Z,14.60
2019-04-23T17:03:12.740Z,14.70
2019-04-23T17:08:30.642Z,14.60
2019-04-23T17:10:37.845Z,14.60
2019-04-23T17:13:29.167Z,14.60
2019-04-23T17:15:45.845Z,14.60
2019-04-23T17:18:11.668Z,14.60
2019-04-23T17:25:42.011Z,14.70
2019-04-23T17:30:53.813Z,14.70
2019-04-23T17:33:33.197Z,14.70
2019-04-23T17:41:22.049Z,14.90
2019-04-23T17:43:59.849Z,14.90
2019-04-23T17:46:22.169Z,14.90
2019-04-23T17:48:56.572Z,14.90
2019-04-23T17:51:21.027Z,15.00
2019-04-23T17:53:54.770Z,15.00
2019-04-23T17:59:01.759Z,15.10
2019-04-23T18:04:02.230Z,15.20
2019-04-23T18:11:31.939Z,15.30
2019-04-23T18:16:39.543Z,15.50
2019-04-23T18:27:04.916Z,15.80
2019-04-23T18:33:05.255Z,15.90
2019-04-23T18:37:52.512Z,16.00
2019-04-23T18:40:19.999Z,16.00
2019-04-23T18:42:57.583Z,16.10
2019-04-23T18:45:32.558Z,16.10
2019-04-23T18:48:03.021Z,16.10
2019-04-23T18:50:32.768Z,16.10
2019-04-23T18:53:02.823Z,16.10
2019-04-23T18:55:37.957Z,16.10
2019-04-23T18:58:01.815Z,16.10
2019-04-23T19:00:36.960Z,16.00
2019-04-23T19:03:19.761Z,16.10
2019-04-23T19:06:07.352Z,16.10
2019-04-23T19:09:01.141Z,16.10
2019-04-23T19:11:24.147Z,16.10
2019-04-23T19:13:47.734Z,16.10
2019-04-23T19:16:25.360Z,16.10
2019-04-23T19:18:56.263Z,16.10
2019-04-23T19:21:47.342Z,16.10
2019-04-23T19:23:51.105Z,16.00
2019-04-23T19:26:45.975Z,16.10
2019-04-23T19:28:56.561Z,16.10
2019-04-23T19:32:01.777Z,16.10
2019-04-23T19:34:42.356Z,16.10
2019-04-23T19:39:40.234Z,16.10
2019-04-23T19:42:17.925Z,16.10
2019-04-23T19:47:09.303Z,16.00
2019-04-23T19:49:43.131Z,16.10
2019-04-23T19:52:08.609Z,16.10
2019-04-23T19:57:19.662Z,16.10
2019-04-23T20:02:15.003Z,16.00
2019-04-23T20:04:55.469Z,16.00
2019-04-23T20:09:47.875Z,16.10
2019-04-23T20:14:52.275Z,16.10
2019-04-23T20:17:37.664Z,16.10
2019-04-23T20:19:48.318Z,16.10
2019-04-23T20:22:25.505Z,16.10
2019-04-23T20:27:17.898Z,16.00
2019-04-23T20:38:11.802Z,16.00
2019-04-23T20:42:44.547Z,15.90
2019-04-23T20:47:45.411Z,15.90
2019-04-23T20:50:06.375Z,15.80
2019-04-23T20:52:41.147Z,15.80
2019-04-23T20:55:19.972Z,15.80
2019-04-23T20:58:06.847Z,15.80
2019-04-23T21:03:30.863Z,15.80
2019-04-23T21:05:50.336Z,15.80
2019-04-23T21:08:14.473Z,15.70
2019-04-23T21:10:44.812Z,15.70
2019-04-23T21:13:27.529Z,15.70
2019-04-23T21:15:54.710Z,15.70
2019-04-23T21:18:24.572Z,15.60
2019-04-23T21:25:47.665Z,15.50
2019-04-23T21:28:38.637Z,15.50
2019-04-23T21:33:34.072Z,15.50
2019-04-23T21:39:04.248Z,15.40
2019-04-23T21:41:44.772Z,15.40
2019-04-23T21:46:45.879Z,15.30
2019-04-23T21:49:29.592Z,15.20
2019-04-23T21:51:46.418Z,15.20
2019-04-23T21:56:37.286Z,15.10
2019-04-23T21:59:13.389Z,15.10
2019-04-23T22:04:17.251Z,15.00
2019-04-23T22:06:43.323Z,15.00
2019-04-23T22:09:15.900Z,15.00
2019-04-23T22:14:20.031Z,14.90
2019-04-23T22:16:50.488Z,14.90
2019-04-23T22:19:16.740Z,14.90
2019-04-23T22:31:47.252Z,14.70
2019-04-23T22:34:30.917Z,14.70
2019-04-23T22:36:55.838Z,14.70
2019-04-23T22:39:17.676Z,14.60
2019-04-23T22:42:01.450Z,14.60
2019-04-23T22:44:22.919Z,14.60
2019-04-23T22:46:56.354Z,14.60
2019-04-23T22:49:33.496Z,14.60
2019-04-23T22:54:25.944Z,14.50
2019-04-23T22:56:56.760Z,14.50
2019-04-23T23:02:41.243Z,14.50
2019-04-23T23:04:51.622Z,14.40
2019-04-23T23:07:20.143Z,14.40
2019-04-23T23:09:57.784Z,14.40
2019-04-23T23:12:21.587Z,14.40
2019-04-23T23:14:54.426Z,14.40
2019-04-23T23:17:20.680Z,14.30
2019-04-23T23:20:03.163Z,14.40
2019-04-23T23:22:20.086Z,14.30
2019-04-23T23:25:02.511Z,14.30
2019-04-23T23:27:26.724Z,14.30
2019-04-23T23:30:06.518Z,14.30
2019-04-23T23:32:24.456Z,14.30
2019-04-23T23:35:10.874Z,14.20
2019-04-23T23:37:24.019Z,14.20
2019-04-23T23:39:56.975Z,14.10
2019-04-23T23:42:22.156Z,14.20
2019-04-23T23:45:03.372Z,14.10
2019-04-23T23:47:19.617Z,14.10
2019-04-23T23:50:03.773Z,14.10
2019-04-23T23:52:35.110Z,14.10
2019-04-23T23:55:03.922Z,14.00
